createdAt,value
2022-10-10T00:00:29.242Z,5.07
2022-10-10T00:02:55.530Z,11.68
2022-10-10T00:05:21.968Z,5.60
2022-10-10T00:07:48.245Z,5.72
2022-10-10T00:10:14.555Z,6.25
2022-10-10T00:12:40.833Z,8.18
2022-10-10T00:15:07.428Z,4.05
2022-10-10T00:17:33.716Z,7.47
2022-10-10T00:20:00.000Z,9.07
2022-10-10T00:22:26.345Z,5.85
2022-10-10T00:24:52.640Z,7.25
2022-10-10T00:27:18.938Z,5.25
2022-10-10T00:29:45.228Z,5.50
2022-10-10T00:32:11.598Z,5.85
2022-10-10T00:34:37.918Z,5.53
2022-10-10T00:37:04.269Z,6.10
2022-10-10T00:39:31.221Z,6.88
2022-10-10T00:41:57.645Z,5.13
2022-10-10T00:44:23.969Z,4.18
2022-10-10T00:46:50.333Z,6.32
2022-10-10T00:49:19.320Z,6.75
2022-10-10T00:51:47.046Z,4.75
2022-10-10T00:54:14.665Z,6.93
2022-10-10T00:56:50.117Z,7.95
2022-10-10T00:59:16.715Z,6.35
2022-10-10T01:01:42.964Z,4.03
2022-10-10T01:04:28.056Z,5.38
2022-10-10T01:06:54.368Z,4.75
2022-10-10T01:09:20.685Z,6.35
2022-10-10T01:11:51.774Z,6.25
2022-10-10T01:14:27.219Z,5.00
2022-10-10T01:17:26.026Z,5.47
2022-10-10T01:19:52.360Z,6.00
2022-10-10T01:22:18.592Z,6.35
2022-10-10T01:24:56.964Z,6.00
2022-10-10T01:27:34.513Z,6.43
2022-10-10T01:30:08.502Z,9.50
2022-10-10T01:35:07.111Z,6.13
2022-10-10T01:37:45.905Z,5.78
2022-10-10T01:40:18.158Z,5.10
2022-10-10T01:42:53.327Z,6.53
2022-10-10T01:45:20.370Z,5.32
2022-10-10T01:47:47.620Z,5.40
2022-10-10T01:50:15.920Z,6.18
2022-10-10T01:52:52.646Z,4.63
2022-10-10T01:55:25.140Z,6.20
2022-10-10T01:58:10.170Z,10.70
2022-10-10T02:00:42.652Z,4.70
2022-10-10T02:03:13.915Z,5.53
2022-10-10T02:05:53.560Z,4.30
2022-10-10T02:08:26.040Z,5.65
2022-10-10T02:10:54.942Z,5.75
2022-10-10T02:13:23.653Z,5.25
2022-10-10T02:15:52.562Z,8.15
2022-10-10T02:18:20.617Z,6.35
2022-10-10T02:20:47.561Z,4.35
2022-10-10T02:23:15.358Z,6.95
2022-10-10T02:25:42.664Z,6.00
2022-10-10T02:28:24.222Z,6.30
2022-10-10T02:30:52.244Z,5.18
2022-10-10T02:33:25.424Z,7.72
2022-10-10T02:35:52.597Z,5.43
2022-10-10T02:38:19.488Z,7.53
2022-10-10T02:40:46.383Z,6.75
2022-10-10T02:43:13.778Z,8.75
2022-10-10T02:45:40.349Z,9.25
2022-10-10T02:48:07.057Z,6.18
2022-10-10T02:50:33.653Z,7.03
2022-10-10T02:52:59.941Z,6.57
2022-10-10T02:55:26.378Z,6.47
2022-10-10T02:57:53.009Z,4.50
2022-10-10T03:00:19.455Z,6.00
2022-10-10T03:02:46.165Z,5.32
2022-10-10T03:05:12.782Z,4.70
2022-10-10T03:07:39.037Z,6.93
2022-10-10T03:10:07.247Z,5.50
2022-10-10T03:12:34.347Z,7.00
2022-10-10T03:15:00.608Z,6.80
2022-10-10T03:17:26.891Z,9.00
2022-10-10T03:19:53.209Z,8.43
2022-10-10T03:22:19.476Z,9.35
2022-10-10T03:24:46.854Z,5.47
2022-10-10T03:27:13.193Z,6.47
2022-10-10T03:29:39.502Z,12.77
2022-10-10T03:32:10.175Z,9.15
2022-10-10T03:34:37.244Z,8.27
2022-10-10T03:37:03.514Z,10.77
2022-10-10T03:39:29.877Z,6.13
2022-10-10T03:41:56.257Z,11.15
2022-10-10T03:44:22.602Z,10.98
2022-10-10T03:46:48.856Z,6.78
2022-10-10T03:49:15.252Z,8.02
2022-10-10T03:51:41.561Z,4.97
2022-10-10T03:54:07.813Z,4.63
2022-10-10T03:56:34.094Z,9.68
2022-10-10T03:59:00.798Z,6.75
2022-10-10T04:01:27.809Z,7.95
2022-10-10T04:03:54.099Z,7.63
2022-10-10T04:06:20.414Z,8.30
2022-10-10T04:08:46.709Z,9.05
2022-10-10T04:11:13.008Z,9.98
2022-10-10T04:13:39.353Z,6.70
2022-10-10T04:16:05.865Z,7.40
2022-10-10T04:18:32.208Z,7.38
2022-10-10T04:21:01.220Z,5.30
2022-10-10T04:23:27.497Z,8.05
2022-10-10T04:25:53.783Z,8.65
2022-10-10T04:28:20.141Z,6.07
2022-10-10T04:30:46.576Z,5.95
2022-10-10T04:33:12.861Z,12.77
2022-10-10T04:35:39.154Z,7.90
2022-10-10T04:38:06.167Z,7.70
2022-10-10T04:40:32.582Z,9.07
2022-10-10T04:42:58.945Z,9.52
2022-10-10T04:45:26.480Z,9.15
2022-10-10T04:47:53.557Z,8.70
2022-10-10T04:50:20.153Z,14.35
2022-10-10T04:52:46.548Z,9.43
2022-10-10T04:55:12.908Z,10.35
2022-10-10T04:57:39.202Z,7.32
2022-10-10T05:00:05.969Z,9.18
2022-10-10T05:02:32.504Z,8.70
2022-10-10T05:04:58.776Z,9.75
2022-10-10T05:07:25.035Z,9.20
2022-10-10T05:09:51.327Z,6.70
2022-10-10T05:12:17.581Z,9.10
2022-10-10T05:14:47.971Z,10.13
2022-10-10T05:17:14.764Z,10.70
2022-10-10T05:19:41.013Z,12.32
2022-10-10T05:22:07.378Z,9.00
2022-10-10T05:24:33.674Z,12.43
2022-10-10T05:27:00.005Z,12.90
2022-10-10T05:29:26.324Z,9.35
2022-10-10T05:31:52.713Z,9.77
2022-10-10T05:34:18.998Z,10.68
2022-10-10T05:36:45.373Z,7.85
2022-10-10T05:39:11.675Z,12.65
2022-10-10T05:41:37.952Z,10.93
2022-10-10T05:44:04.248Z,9.02
2022-10-10T05:46:30.644Z,12.02
2022-10-10T05:48:57.386Z,9.77
2022-10-10T05:51:23.725Z,9.75
2022-10-10T05:53:50.010Z,8.43
2022-10-10T05:56:17.084Z,11.02
2022-10-10T05:58:44.483Z,6.57
2022-10-10T06:01:10.846Z,9.10
2022-10-10T06:03:37.137Z,9.55
2022-10-10T06:06:03.496Z,15.82
2022-10-10T06:08:31.387Z,11.85
2022-10-10T06:11:01.906Z,15.40
2022-10-10T06:13:28.181Z,13.05
2022-10-10T06:15:55.005Z,11.93
2022-10-10T06:18:21.326Z,11.45
2022-10-10T06:20:47.878Z,17.58
2022-10-10T06:23:14.160Z,16.38
2022-10-10T06:25:41.739Z,13.85
2022-10-10T06:28:08.711Z,10.98
2022-10-10T06:30:39.224Z,13.95
2022-10-10T06:33:05.530Z,9.90
2022-10-10T06:35:31.780Z,9.38
2022-10-10T06:37:58.053Z,7.35
2022-10-10T06:40:24.607Z,11.75
2022-10-10T06:42:51.155Z,11.23
2022-10-10T06:45:17.817Z,9.35
2022-10-10T06:47:44.105Z,11.07
2022-10-10T06:50:11.222Z,10.25
2022-10-10T06:52:37.492Z,8.40
2022-10-10T06:55:03.911Z,8.77
2022-10-10T06:57:30.244Z,9.55
2022-10-10T06:59:56.591Z,7.72
2022-10-10T07:02:23.203Z,8.40
2022-10-10T07:04:49.545Z,5.95
2022-10-10T07:07:15.834Z,7.20
2022-10-10T07:09:42.134Z,10.05
2022-10-10T07:12:08.961Z,8.70
2022-10-10T07:14:35.271Z,6.70
2022-10-10T07:17:01.611Z,8.90
2022-10-10T07:19:28.301Z,14.75
2022-10-10T07:21:54.576Z,16.92
2022-10-10T07:24:20.830Z,10.15
2022-10-10T07:26:47.228Z,10.93
2022-10-10T07:29:13.519Z,9.50
2022-10-10T07:31:39.779Z,12.90
2022-10-10T07:34:06.114Z,7.57
2022-10-10T07:36:32.596Z,7.35
2022-10-10T07:38:58.998Z,7.93
2022-10-10T07:41:25.268Z,12.70
2022-10-10T07:43:55.795Z,6.80
2022-10-10T07:46:22.126Z,5.50
2022-10-10T07:48:49.162Z,7.88
2022-10-10T07:51:15.804Z,6.82
2022-10-10T07:53:44.008Z,7.38
2022-10-10T07:56:10.614Z,10.07
2022-10-10T07:58:37.280Z,10.45
2022-10-10T08:01:04.858Z,13.23
2022-10-10T08:03:31.175Z,18.35
2022-10-10T08:05:57.598Z,14.50
2022-10-10T08:08:23.887Z,17.83
2022-10-10T08:10:50.179Z,14.18
2022-10-10T08:13:16.545Z,13.95
2022-10-10T08:15:42.934Z,10.73
2022-10-10T08:18:09.365Z,6.60
2022-10-10T08:20:35.636Z,8.38
2022-10-10T08:23:01.915Z,6.20
2022-10-10T08:25:28.193Z,6.22
2022-10-10T08:27:54.472Z,12.07
2022-10-10T08:30:20.728Z,10.35
2022-10-10T08:32:47.079Z,6.78
2022-10-10T08:35:13.344Z,6.38
2022-10-10T08:37:39.634Z,7.68
2022-10-10T08:40:06.309Z,6.35
2022-10-10T08:42:48.960Z,7.47
2022-10-10T08:45:20.740Z,8.65
2022-10-10T08:47:49.258Z,7.80
2022-10-10T08:50:21.344Z,6.65
2022-10-10T08:52:57.587Z,6.82
2022-10-10T08:55:27.654Z,6.53
2022-10-10T08:58:07.202Z,5.30
2022-10-10T09:00:36.646Z,9.57
2022-10-10T09:03:05.458Z,6.60
2022-10-10T09:05:45.931Z,8.82
2022-10-10T09:08:25.649Z,6.03
2022-10-10T09:11:03.839Z,8.15
2022-10-10T09:13:32.333Z,6.30
2022-10-10T09:16:04.057Z,9.50
2022-10-10T09:18:37.366Z,11.55
2022-10-10T09:21:08.018Z,5.93
2022-10-10T09:23:43.592Z,8.40
2022-10-10T09:26:13.571Z,5.88
2022-10-10T09:28:55.373Z,5.97
2022-10-10T09:31:21.678Z,6.93
2022-10-10T09:33:51.329Z,7.22
2022-10-10T09:36:19.725Z,7.53
2022-10-10T09:38:57.232Z,4.97
2022-10-10T09:41:29.057Z,7.05
2022-10-10T09:43:56.681Z,7.43
2022-10-10T09:46:23.352Z,6.07
2022-10-10T09:48:49.599Z,6.50
2022-10-10T09:51:17.213Z,6.25
2022-10-10T09:53:44.126Z,6.80
2022-10-10T09:56:18.814Z,9.10
2022-10-10T09:58:46.673Z,7.82
2022-10-10T10:01:19.037Z,8.20
2022-10-10T10:04:17.316Z,8.00
2022-10-10T10:06:51.725Z,6.50
2022-10-10T10:09:19.352Z,7.43
2022-10-10T10:11:46.978Z,6.45
2022-10-10T10:14:27.600Z,8.30
2022-10-10T10:16:55.590Z,8.25
2022-10-10T10:19:38.522Z,7.32
2022-10-10T10:22:05.248Z,7.40
2022-10-10T10:24:36.350Z,8.45
2022-10-10T10:27:10.354Z,7.70
2022-10-10T10:29:36.949Z,7.35
2022-10-10T10:32:03.209Z,6.38
2022-10-10T10:34:36.902Z,6.88
2022-10-10T10:37:23.448Z,14.13
2022-10-10T10:39:52.778Z,9.63
2022-10-10T10:42:31.185Z,11.13
2022-10-10T10:45:03.453Z,6.93
2022-10-10T10:47:48.560Z,7.00
2022-10-10T10:50:33.748Z,9.15
2022-10-10T10:53:04.505Z,9.82
2022-10-10T10:55:41.626Z,8.52
2022-10-10T10:59:09.878Z,7.07
2022-10-10T11:01:44.844Z,6.15
2022-10-10T11:05:19.979Z,6.55
2022-10-10T11:07:20.704Z,6.43
2022-10-10T11:09:53.646Z,6.10
2022-10-10T11:12:37.049Z,8.23
2022-10-10T11:17:32.541Z,9.95
2022-10-10T11:20:09.550Z,7.43
2022-10-10T11:25:13.357Z,7.40
2022-10-10T11:27:54.950Z,8.65
2022-10-10T11:30:23.213Z,7.97
2022-10-10T11:33:12.874Z,7.78
2022-10-10T11:35:54.462Z,9.85
2022-10-10T11:38:24.967Z,9.32
2022-10-10T11:40:53.489Z,11.18
2022-10-10T11:43:28.281Z,5.63
2022-10-10T11:46:02.773Z,10.18
2022-10-10T11:48:35.716Z,9.23
2022-10-10T11:51:05.985Z,12.30
2022-10-10T11:53:36.215Z,9.85
2022-10-10T11:56:05.639Z,8.25
2022-10-10T11:58:33.540Z,10.25
2022-10-10T12:01:12.928Z,7.50
2022-10-10T12:03:39.244Z,12.65
2022-10-10T12:06:29.079Z,10.48
2022-10-10T12:09:01.609Z,14.30
2022-10-10T12:11:42.117Z,11.07
2022-10-10T12:14:09.482Z,10.32
2022-10-10T12:16:37.246Z,11.57
2022-10-10T12:19:05.746Z,11.55
2022-10-10T12:21:32.855Z,10.05
2022-10-10T12:24:00.869Z,12.57
2022-10-10T12:26:47.101Z,11.07
2022-10-10T12:29:13.458Z,9.55
2022-10-10T12:31:39.820Z,12.43
2022-10-10T12:34:13.332Z,9.40
2022-10-10T12:36:39.574Z,11.45
2022-10-10T12:39:07.526Z,8.45
2022-10-10T12:41:47.239Z,9.15
2022-10-10T12:44:32.648Z,12.93
2022-10-10T12:47:52.807Z,10.35
2022-10-10T12:50:27.115Z,10.75
2022-10-10T12:52:56.488Z,7.07
2022-10-10T12:55:28.039Z,12.20
2022-10-10T12:57:55.882Z,10.50
2022-10-10T13:00:22.332Z,11.45
2022-10-10T13:02:54.010Z,8.48
2022-10-10T13:05:24.360Z,12.73
2022-10-10T13:07:51.574Z,8.38
2022-10-10T13:10:25.434Z,8.15
2022-10-10T13:12:59.019Z,13.52
2022-10-10T13:15:25.419Z,9.45
2022-10-10T13:17:51.704Z,7.60
2022-10-10T13:20:26.348Z,7.80
2022-10-10T13:22:52.700Z,9.23
2022-10-10T13:25:19.049Z,10.55
2022-10-10T13:27:45.364Z,10.25
2022-10-10T13:30:18.922Z,9.35
2022-10-10T13:32:45.477Z,7.80
2022-10-10T13:35:16.591Z,5.65
2022-10-10T13:37:43.760Z,8.25
2022-10-10T13:40:14.076Z,5.82
2022-10-10T13:42:40.502Z,7.97
2022-10-10T13:45:29.229Z,10.82
2022-10-10T13:47:59.914Z,10.38
2022-10-10T13:50:31.052Z,5.30
2022-10-10T13:53:16.194Z,6.93
2022-10-10T13:55:42.588Z,6.72
2022-10-10T13:58:10.465Z,11.48
2022-10-10T14:00:37.191Z,9.32
2022-10-10T14:03:13.135Z,11.20
2022-10-10T14:05:42.357Z,9.95
2022-10-10T14:08:16.475Z,8.93
2022-10-10T14:13:17.389Z,9.07
2022-10-10T14:15:47.219Z,12.48
2022-10-10T14:18:16.024Z,10.55
2022-10-10T14:20:42.314Z,5.47
2022-10-10T14:23:08.726Z,11.30
2022-10-10T14:25:36.678Z,9.18
2022-10-10T14:28:02.947Z,9.82
2022-10-10T14:30:29.315Z,12.15
2022-10-10T14:32:55.984Z,9.55
2022-10-10T14:35:22.406Z,13.77
2022-10-10T14:37:48.745Z,7.68
2022-10-10T14:40:20.428Z,11.40
2022-10-10T14:42:47.218Z,10.50
2022-10-10T14:45:14.726Z,11.95
2022-10-10T14:47:41.089Z,8.32
2022-10-10T14:50:14.905Z,9.40
2022-10-10T14:52:41.236Z,9.75
2022-10-10T14:55:07.925Z,9.23
2022-10-10T14:57:34.294Z,8.40
2022-10-10T15:00:00.561Z,12.25
2022-10-10T15:02:26.837Z,9.52
2022-10-10T15:04:53.103Z,12.60
2022-10-10T15:07:19.513Z,8.15
2022-10-10T15:12:33.880Z,14.90
2022-10-10T15:15:00.255Z,11.70
2022-10-10T15:17:27.131Z,9.00
2022-10-10T15:19:53.488Z,10.50
2022-10-10T15:22:19.861Z,9.80
2022-10-10T15:24:46.128Z,12.40
2022-10-10T15:27:12.630Z,10.43
2022-10-10T15:29:39.436Z,10.38
2022-10-10T15:32:06.329Z,12.32
2022-10-10T15:34:32.654Z,10.93
2022-10-10T15:36:58.941Z,12.93
2022-10-10T15:39:25.283Z,9.35
2022-10-10T15:41:51.542Z,8.48
2022-10-10T15:44:18.626Z,11.52
2022-10-10T15:46:45.385Z,12.55
2022-10-10T15:49:12.871Z,10.82
2022-10-10T15:51:42.614Z,7.75
2022-10-10T15:54:08.877Z,8.25
2022-10-10T15:56:35.200Z,15.50
2022-10-10T15:59:01.767Z,11.40
2022-10-10T16:01:28.708Z,9.00
2022-10-10T16:03:55.546Z,10.80
2022-10-10T16:06:22.624Z,7.88
2022-10-10T16:08:55.766Z,10.07
2022-10-10T16:11:25.833Z,8.48
2022-10-10T16:13:53.085Z,8.68
2022-10-10T16:16:19.964Z,8.82
2022-10-10T16:18:46.310Z,9.13
2022-10-10T16:21:14.521Z,14.32
2022-10-10T16:23:40.879Z,10.20
2022-10-10T16:26:08.929Z,11.43
2022-10-10T16:28:35.322Z,11.07
2022-10-10T16:31:02.876Z,10.13
2022-10-10T16:33:30.943Z,10.77
2022-10-10T16:35:57.202Z,13.23
2022-10-10T16:38:23.600Z,10.95
2022-10-10T16:40:49.944Z,12.93
2022-10-10T16:43:17.135Z,10.32
2022-10-10T16:45:44.153Z,7.40
2022-10-10T16:48:10.777Z,15.95
2022-10-10T16:50:40.438Z,10.95
2022-10-10T16:53:07.325Z,16.95
2022-10-10T16:55:38.374Z,12.35
2022-10-10T16:58:04.657Z,12.13
2022-10-10T17:00:30.995Z,13.00
2022-10-10T17:02:57.326Z,14.07
2022-10-10T17:05:23.634Z,12.50
2022-10-10T17:07:50.689Z,17.05
2022-10-10T17:10:17.206Z,13.55
2022-10-10T17:12:43.500Z,13.52
2022-10-10T17:15:10.078Z,12.10
2022-10-10T17:17:36.867Z,12.15
2022-10-10T17:20:04.333Z,14.18
2022-10-10T17:22:30.841Z,9.95
2022-10-10T17:24:57.228Z,15.95
2022-10-10T17:27:23.796Z,14.25
2022-10-10T17:29:53.530Z,9.77
2022-10-10T17:32:20.228Z,16.17
2022-10-10T17:34:46.770Z,13.60
2022-10-10T17:37:13.050Z,15.80
2022-10-10T17:39:39.389Z,13.40
2022-10-10T17:42:05.785Z,17.58
2022-10-10T17:44:39.085Z,14.38
2022-10-10T17:47:08.678Z,16.65
2022-10-10T17:49:34.966Z,12.40
2022-10-10T17:52:01.461Z,12.27
2022-10-10T17:54:27.765Z,16.15
2022-10-10T17:56:54.112Z,17.40
2022-10-10T17:59:20.405Z,19.92
2022-10-10T18:01:46.714Z,19.48
2022-10-10T18:04:14.639Z,18.63
2022-10-10T18:06:41.119Z,15.43
2022-10-10T18:09:07.481Z,13.43
2022-10-10T18:11:34.126Z,22.33
2022-10-10T18:14:01.060Z,12.40
2022-10-10T18:16:33.677Z,15.18
2022-10-10T18:19:00.459Z,15.77
2022-10-10T18:21:27.442Z,11.52
2022-10-10T18:23:53.726Z,16.38
2022-10-10T18:26:25.365Z,13.80
2022-10-10T18:28:55.452Z,18.20
2022-10-10T18:31:23.834Z,12.80
2022-10-10T18:33:50.450Z,14.10
2022-10-10T18:36:20.957Z,14.52
2022-10-10T18:38:47.478Z,14.73
2022-10-10T18:41:15.338Z,13.57
2022-10-10T18:43:43.181Z,18.25
2022-10-10T18:46:10.482Z,13.45
2022-10-10T18:48:38.397Z,14.73
2022-10-10T18:51:09.235Z,14.25
2022-10-10T18:53:36.574Z,17.50
2022-10-10T18:56:03.621Z,19.38
2022-10-10T18:58:30.402Z,12.82
2022-10-10T19:01:07.184Z,19.98
2022-10-10T19:03:34.756Z,19.77
2022-10-10T19:06:01.788Z,16.75
2022-10-10T19:08:28.158Z,18.23
2022-10-10T19:10:54.445Z,18.42
2022-10-10T19:13:20.723Z,14.57
2022-10-10T19:15:47.247Z,22.60
2022-10-10T19:18:13.531Z,16.80
2022-10-10T19:20:39.833Z,17.92
2022-10-10T19:23:06.199Z,16.02
2022-10-10T19:25:36.800Z,23.48
2022-10-10T19:28:03.116Z,15.23
2022-10-10T19:30:29.422Z,18.23
2022-10-10T19:32:55.696Z,17.80
2022-10-10T19:35:21.964Z,16.40
2022-10-10T19:37:48.251Z,18.55
2022-10-10T19:40:14.629Z,14.50
2022-10-10T19:42:40.917Z,19.70
2022-10-10T19:45:07.396Z,14.57
2022-10-10T19:47:33.763Z,18.05
2022-10-10T19:50:00.051Z,14.77
2022-10-10T19:52:26.367Z,18.48
2022-10-10T19:54:52.893Z,18.83
2022-10-10T19:57:19.145Z,18.00
2022-10-10T19:59:45.405Z,20.63
2022-10-10T20:02:11.670Z,19.10
2022-10-10T20:04:37.938Z,18.73
2022-10-10T20:07:04.253Z,17.52
2022-10-10T20:09:30.517Z,15.75
2022-10-10T20:11:56.838Z,21.13
2022-10-10T20:14:23.128Z,14.57
2022-10-10T20:16:49.469Z,21.05
2022-10-10T20:19:15.858Z,18.55
2022-10-10T20:21:42.137Z,17.00
2022-10-10T20:24:09.260Z,15.82
2022-10-10T20:26:35.814Z,21.00
2022-10-10T20:29:02.729Z,17.67
2022-10-10T20:31:29.996Z,22.73
2022-10-10T20:33:58.217Z,19.45
2022-10-10T20:36:24.909Z,24.90
2022-10-10T20:38:54.856Z,15.20
2022-10-10T20:41:21.932Z,22.77
2022-10-10T20:43:48.240Z,20.48
2022-10-10T20:46:15.167Z,19.23
2022-10-10T20:48:41.545Z,18.27
2022-10-10T20:51:12.382Z,20.67
2022-10-10T20:53:41.613Z,19.10
2022-10-10T20:56:09.076Z,16.33
2022-10-10T20:58:36.224Z,18.85
2022-10-10T21:01:06.685Z,22.35
2022-10-10T21:03:33.031Z,17.45
2022-10-10T21:06:10.581Z,20.35
2022-10-10T21:08:37.440Z,19.63
2022-10-10T21:11:05.390Z,20.15
2022-10-10T21:13:32.620Z,13.68
2022-10-10T21:15:58.920Z,17.15
2022-10-10T21:18:25.209Z,22.77
2022-10-10T21:20:51.490Z,21.38
2022-10-10T21:23:17.796Z,21.80
2022-10-10T21:25:44.668Z,20.13
2022-10-10T21:28:11.033Z,17.58
2022-10-10T21:30:37.346Z,17.42
2022-10-10T21:33:03.613Z,22.40
2022-10-10T21:35:29.900Z,17.40
2022-10-10T21:37:56.164Z,20.50
2022-10-10T21:40:22.414Z,19.60
2022-10-10T21:42:48.684Z,19.05
2022-10-10T21:45:14.961Z,15.63
2022-10-10T21:47:41.761Z,19.40
2022-10-10T21:50:08.296Z,18.60
2022-10-10T21:52:34.587Z,21.20
2022-10-10T21:55:00.829Z,20.50
2022-10-10T21:57:27.101Z,18.73
2022-10-10T21:59:53.341Z,18.02
2022-10-10T22:02:19.621Z,23.20
2022-10-10T22:04:49.572Z,18.20
2022-10-10T22:07:15.957Z,19.25
2022-10-10T22:09:42.448Z,19.83
2022-10-10T22:12:08.737Z,18.65
2022-10-10T22:14:35.065Z,19.38
2022-10-10T22:17:01.340Z,21.10
2022-10-10T22:19:28.406Z,23.50
2022-10-10T22:21:54.672Z,22.92
2022-10-10T22:24:20.921Z,24.05
2022-10-10T22:26:47.274Z,24.90
2022-10-10T22:29:13.560Z,21.65
2022-10-10T22:31:40.089Z,20.60
2022-10-10T22:34:06.931Z,25.50
2022-10-10T22:36:33.632Z,24.75
2022-10-10T22:38:59.909Z,25.85
2022-10-10T22:41:26.327Z,25.00
2022-10-10T22:43:52.634Z,27.98
2022-10-10T22:46:19.068Z,22.27
2022-10-10T22:48:45.424Z,24.73
2022-10-10T22:51:13.119Z,22.23
2022-10-10T22:53:40.020Z,23.40
2022-10-10T22:56:07.012Z,25.33
2022-10-10T22:58:33.632Z,26.00
2022-10-10T23:01:07.032Z,31.75
2022-10-10T23:03:33.421Z,25.98
2022-10-10T23:05:59.721Z,30.23
2022-10-10T23:08:25.978Z,23.80
2022-10-10T23:10:52.362Z,28.70
2022-10-10T23:13:18.623Z,24.13
2022-10-10T23:15:44.922Z,26.60
2022-10-10T23:18:11.205Z,25.67
2022-10-10T23:20:37.528Z,27.10
2022-10-10T23:23:03.780Z,28.30
2022-10-10T23:25:30.060Z,26.92
2022-10-10T23:27:56.377Z,28.08
2022-10-10T23:30:22.649Z,25.58
2022-10-10T23:32:49.001Z,32.00
2022-10-10T23:35:15.337Z,30.38
2022-10-10T23:37:41.651Z,30.08
2022-10-10T23:40:08.193Z,30.48
2022-10-10T23:42:34.458Z,32.30
2022-10-10T23:45:00.736Z,31.63
2022-10-10T23:47:27.036Z,35.03
2022-10-10T23:49:53.316Z,25.58
2022-10-10T23:52:19.698Z,31.17
2022-10-10T23:54:46.058Z,27.80
2022-10-10T23:57:12.339Z,27.05
2022-10-10T23:59:38.621Z,28.73
